• Join FlightAware (Why Join?)
  • Login
  • US Flag 
06:17PM EDT


 

Airport Tracker/Info


-or-


 

Live Flight TrackerFlight Track Log ✈ DAL5996 ✈ 18-Apr-2013 ✈ KDFW - KDTW

Flight Track Log - Related Links

Times and Time Zones

All times are in EDT time to prevent confusion due to time zone crossing. See the DAL5996 flight status page for this flight to view local times or setup timezone preferences in your user account.

Time Position Orientation Groundspeed Altitude Reporting Facility
EDT Latitude Longitude Course Direction KTS MPH feet Rate Location/Type
07:37AM 32.9167 -97.0167 357° North 137 158 2,500  Level Dallas / Fort Worth TRACON
07:38AM 32.9833 -97.0000 12° North 233 268 4,200 2,220 Climbing Dallas / Fort Worth TRACON
07:40AM 32.9759 -96.8000 North  Level FlightAware Approximate
07:40AM 33.1436 -96.9394 18° North 317 365 9,600  Level Fort Worth Center
07:41AM 33.0991 -96.8020 357° North  Level FlightAware Approximate
07:41AM 33.2289 -96.9069 18° North 338 389 11,700  Level Fort Worth Center
07:42AM 33.2222 -96.8097 357° North  Level FlightAware Approximate
07:42AM 33.3436 -96.8639 17° North 371 427 14,700  Level Fort Worth Center
07:43AM 33.4497 -96.8208 19° North 387 445 17,200 2,520 Climbing Fort Worth Center
07:44AM 33.5519 -96.7603 26° Northeast 398 458 19,800 2,160 Climbing Fort Worth Center
07:45AM 33.6475 -96.6997 28° Northeast 412 474 21,600 1,920 Climbing Fort Worth Center
07:46AM 33.7681 -96.6214 28° Northeast 426 490 23,700 1,740 Climbing Fort Worth Center
07:47AM 33.8636 -96.5581 29° Northeast 432 497 25,100 1,440 Climbing Fort Worth Center
07:48AM 33.9822 -96.4842 27° Northeast 446 513 26,600 1,500 Climbing Fort Worth Center
07:49AM 34.1003 -96.4003 30° Northeast 456 525 28,100 1,500 Climbing Fort Worth Center
07:50AM 34.2144 -96.3058 34° Northeast 461 531 29,600 1,080 Climbing Fort Worth Center
07:51AM 34.3283 -96.2139 34° Northeast 476 548 30,300 -360 Climbing Fort Worth Center
07:52AM 34.4400 -96.1192 35° Northeast 489 563 28,900 -1,320 Descending Fort Worth Center
07:53AM 34.5517 -96.0292 34° Northeast 489 563 27,700 -960 Descending Fort Worth Center
07:54AM 34.6592 -95.9392 35° Northeast 478 550 27,000 -360 Descending Fort Worth Center
07:55AM 34.7667 -95.8514 34° Northeast 473 544 27,000  Level Fort Worth Center
07:56AM 34.8611 -95.7433 43° Northeast 467 537 27,000  Level Fort Worth Center
07:57AM 34.9136 -95.6108 64° Northeast 457 526 27,000  Level Fort Worth Center
07:59AM 34.9981 -95.3761 66° East 472 543 27,000  Level Memphis Center
08:00AM 35.0519 -95.2272 66° East 472 543 27,000  Level Memphis Center
08:01AM 35.1036 -95.0806 67° East 477 549 27,000  Level Memphis Center
08:02AM 35.1569 -94.9336 66° East 472 543 27,000 780 Level Memphis Center
08:03AM 35.2106 -94.7842 66° East 472 543 28,600 1,620 Climbing Memphis Center
08:04AM 35.2747 -94.6172 65° Northeast 477 549 30,300 1,140 Climbing Memphis Center
08:05AM 35.3400 -94.4703 61° Northeast 482 555 30,900 660 Climbing Memphis Center
08:06AM 35.4033 -94.3206 63° Northeast 482 555 31,700 900 Climbing Memphis Center
08:07AM 35.4686 -94.1656 63° Northeast 487 560 32,700 1,020 Climbing Memphis Center
08:08AM 35.5336 -94.0131 62° Northeast 493 567 33,800 1,080 Climbing Memphis Center
08:09AM 35.5986 -93.8600 62° Northeast 500 575 34,900 900 Climbing Memphis Center
08:10AM 35.6519 -93.7372 62° Northeast 508 585 35,700 720 Climbing Memphis Center
08:11AM 35.7211 -93.5686 63° Northeast 508 585 36,400 600 Climbing Memphis Center
08:12AM 35.7856 -93.4125 63° Northeast 508 585 36,900 300 Climbing Memphis Center
08:13AM 35.8497 -93.2611 62° Northeast 503 579 37,000  Climbing Memphis Center
08:14AM 35.9114 -93.1069 64° Northeast 503 579 37,000  Level Memphis Center
08:15AM 35.9733 -92.9528 64° Northeast 497 572 37,000  Level Memphis Center
08:16AM 36.0347 -92.8006 63° Northeast 497 572 37,000  Level Memphis Center
08:17AM 36.0981 -92.6508 62° Northeast 497 572 37,000  Level Memphis Center
08:18AM 36.1592 -92.4958 64° Northeast 497 572 37,000  Level Memphis Center
08:19AM 36.2200 -92.3431 64° Northeast 497 572 37,000  Level Memphis Center
08:20AM 36.2806 -92.1925 63° Northeast 491 565 37,000  Level Memphis Center
08:21AM 36.3411 -92.0469 63° Northeast 486 559 37,000  Level Memphis Center
08:22AM 36.4014 -91.8961 64° Northeast 486 559 37,000  Level Memphis Center
08:23AM 36.4597 -91.7297 66° East 486 559 37,000  Level Memphis Center
08:24AM 36.5239 -91.5783 62° Northeast 481 554 37,000  Level Memphis Center
08:25AM 36.5814 -91.4294 64° Northeast 481 554 37,000  Level Memphis Center
08:26AM 36.6389 -91.2775 65° Northeast 481 554 37,000  Level Memphis Center
08:27AM 36.6961 -91.1306 64° Northeast 481 554 37,000  Level Memphis Center
08:28AM 36.7489 -90.9914 65° Northeast 458 527 37,000  Level Memphis Center
08:29AM 36.8058 -90.8467 64° Northeast 458 527 37,000  Level Memphis Center
08:30AM 36.8606 -90.7044 64° Northeast 458 527 37,000  Level Memphis Center
08:31AM 36.9172 -90.5644 63° Northeast 458 527 37,000  Level Memphis Center
08:32AM 36.9714 -90.4192 65° Northeast 453 521 37,000  Level Memphis Center
08:33AM 37.0236 -90.2736 66° East 453 521 37,000  Level Memphis Center
08:34AM 37.0775 -90.1306 65° Northeast 453 521 37,000  Level Memphis Center
08:35AM 37.1356 -89.9822 64° Northeast 458 527 37,000  Level Memphis Center
08:36AM 37.1892 -89.8336 66° East 463 533 37,000  Level Memphis Center
08:37AM 37.2447 -89.6897 64° Northeast 463 533 37,000  Level Memphis Center
08:38AM 37.2981 -89.5408 66° East 463 533 37,000  Level Memphis Center
08:40AM 37.3831 -89.2986 66° East 460 529 37,000  Level Indianapolis Center
08:40AM 37.4147 -89.2094 66° East 461 531 37,000  Level Kansas City Center
08:41AM 37.4678 -89.0625 66° East 460 529 37,000  Level Kansas City Center
08:42AM 37.5219 -88.9161 65° Northeast 459 528 37,000  Level Kansas City Center
08:43AM 37.5744 -88.7678 66° East 461 531 37,000  Level Kansas City Center
08:44AM 37.6278 -88.6236 65° Northeast 459 528 37,000  Level Kansas City Center
08:45AM 37.6800 -88.4747 66° East 461 531 37,000  Level Kansas City Center
08:46AM 37.7300 -88.3261 67° East 460 529 37,000  Level Kansas City Center
08:47AM 37.7625 -88.2364 65° Northeast 461 531 37,000  Level Indianapolis Center
08:48AM 37.8247 -88.0586 66° East 460 529 37,000  Level Indianapolis Center
08:49AM 37.8772 -87.9094 66° East 463 533 37,000  Level Indianapolis Center
08:49AM 37.8861 -87.8792 70° East 462 532 37,000  Level Kansas City Center
08:50AM 37.9383 -87.7653 60° Northeast 469 540 37,000  Level Indianapolis Center
08:51AM 38.0439 -87.6764 34° Northeast 455 524 37,000  Level Indianapolis Center
08:52AM 38.1550 -87.5978 29° Northeast 452 520 37,000  Level Indianapolis Center
08:53AM 38.2672 -87.5169 29° Northeast 456 525 37,000  Level Indianapolis Center
08:54AM 38.3800 -87.4364 29° Northeast 457 526 37,000  Level Indianapolis Center
08:55AM 38.4922 -87.3542 30° Northeast 457 526 37,000  Level Indianapolis Center
08:56AM 38.6036 -87.2711 30° Northeast 456 525 37,000  Level Indianapolis Center
08:57AM 38.7153 -87.1906 29° Northeast 456 525 37,000  Level Indianapolis Center
08:58AM 38.8256 -87.1075 30° Northeast 455 524 37,000  Level Indianapolis Center
08:59AM 38.9364 -87.0267 30° Northeast 453 521 37,000  Level Indianapolis Center
09:00AM 39.0464 -86.9453 30° Northeast 454 522 37,000 -540 Level Indianapolis Center
09:01AM 39.1561 -86.8633 30° Northeast 451 519 35,900 -1,020 Descending Indianapolis Center
09:02AM 39.2653 -86.7814 30° Northeast 451 519 35,000 -480 Descending Indianapolis Center
09:03AM 39.3736 -86.7006 30° Northeast 448 516 35,000  Level Indianapolis Center
09:04AM 39.5042 -86.6019 30° Northeast 450 518 35,000 -300 Level Indianapolis Center
09:05AM 39.6136 -86.5197 30° Northeast 452 520 34,400 -840 Descending Indianapolis Center
09:06AM 39.7219 -86.4361 31° Northeast 452 520 33,400 -720 Descending Indianapolis Center
09:07AM 39.8339 -86.3494 31° Northeast 462 532 33,000 -540 Descending Indianapolis Center
09:08AM 39.9367 -86.2450 38° Northeast 465 535 32,400 -900 Descending Indianapolis Center
09:09AM 40.0369 -86.1450 37° Northeast 456 525 31,200 -1,200 Descending Indianapolis Center
09:10AM 40.1356 -86.0458 38° Northeast 448 516 30,000 -600 Descending Indianapolis Center
09:11AM 40.2464 -85.9350 37° Northeast 454 522 30,000  Level Indianapolis Center
09:12AM 40.3489 -85.8317 38° Northeast 458 527 30,000  Level Indianapolis Center
09:13AM 40.4494 -85.7319 37° Northeast 459 528 30,000  Level Chicago Center
09:14AM 40.5492 -85.6314 37° Northeast 456 525 30,000 -840 Level Chicago Center
09:15AM 40.6497 -85.5286 38° Northeast 456 525 28,400 -1,980 Descending Chicago Center
09:16AM 40.7494 -85.4258 38° Northeast 458 527 26,000 -2,220 Descending Chicago Center
09:17AM 40.8494 -85.3222 38° Northeast 458 527 24,000 -1,020 Descending Chicago Center
09:18AM 40.9525 -85.2164 38° Northeast 467 537 24,000 -420 Level Chicago Center
09:19AM 41.0542 -85.1089 39° Northeast 471 542 23,200 -1,200 Descending Chicago Center
09:20AM 41.1542 -85.0011 39° Northeast 468 539 21,600 -1,140 Descending Chicago Center
09:22AM 41.2508 -84.8972 39° Northeast 458 527 21,000 -300 Descending Chicago Center
09:23AM 41.3658 -84.7728 39° Northeast 450 518 21,000  Level Chicago Center
09:24AM 41.4622 -84.6675 39° Northeast 452 520 21,000  Level Chicago Center
09:24AM 41.5053 -84.6206 39° Northeast 449 517 21,000 -840 Level Cleveland Center
09:25AM 41.6028 -84.5156 39° Northeast 449 517 19,900 -1,800 Descending Cleveland Center
09:26AM 41.6878 -84.4011 45° Northeast 444 511 17,400 -2,100 Descending Cleveland Center
09:27AM 41.7311 -84.2897 62° Northeast 432 497 15,800 -1,980 Descending Cleveland Center
09:28AM 41.7858 -84.1394 64° Northeast 414 476 13,500 -1,920 Descending Cleveland Center
09:29AM 41.8481 -84.0203 55° Northeast 382 440 12,100 -720 Descending Cleveland Center
09:30AM 41.9258 -83.9239 43° Northeast 385 443 12,100 -60 Level Cleveland Center
09:31AM 41.9994 -83.8300 43° Northeast 374 430 12,000 -60 Descending Cleveland Center
09:32AM 42.0794 -83.7306 43° Northeast 379 436 12,000  Level Cleveland Center
09:33AM 42.1464 -83.6222 50° Northeast 360 414 12,100 60 Climbing FAA TRACON SMA TRACON (SMA)
09:33AM 42.1658 -83.5897 51° Northeast 360 414 12,100  Level FAA TRACON SMA TRACON (SMA)
09:34AM 42.1900 -83.5497 51° Northeast 359 413 12,100 -360 Level FAA TRACON SMA TRACON (SMA)
09:34AM 42.2131 -83.5228 41° Northeast 362 417 11,900 -1,500 Descending FAA TRACON SMA TRACON (SMA)
09:34AM 42.2397 -83.5047 27° Northeast 343 395 11,200 -2,340 Descending FAA TRACON SMA TRACON (SMA)
09:35AM 42.2672 -83.4867 26° Northeast 353 406 10,400 -2,580 Descending FAA TRACON SMA TRACON (SMA)
09:35AM 42.3006 -83.4653 25° Northeast 347 399 9,500 -2,700 Descending FAA TRACON SMA TRACON (SMA)
09:35AM 42.3264 -83.4478 27° Northeast 340 391 8,600 -2,520 Descending FAA TRACON SMA TRACON (SMA)
09:36AM 42.3511 -83.4300 28° Northeast 334 384 7,700 -2,640 Descending FAA TRACON SMA TRACON (SMA)
09:36AM 42.3828 -83.4089 26° Northeast 332 382 6,700 -2,880 Descending FAA TRACON SMA TRACON (SMA)
09:36AM 42.4025 -83.3842 43° Northeast 321 369 6,000 -2,160 Descending FAA TRACON SMA TRACON (SMA)
09:37AM 42.4083 -83.3442 79° East 277 319 5,400 -1,620 Descending FAA TRACON SMA TRACON (SMA)
09:37AM 42.4039 -83.3161 102° East 247 284 4,900 -1,440 Descending FAA TRACON SMA TRACON (SMA)
09:37AM 42.3983 -83.2853 104° East 241 277 4,500 -1,500 Descending FAA TRACON SMA TRACON (SMA)
09:38AM 42.3836 -83.2669 137° Southeast 198 228 3,900 -1,680 Descending FAA TRACON SMA TRACON (SMA)
09:38AM 42.3664 -83.2658 177° South 172 198 3,400 -1,200 Descending FAA TRACON SMA TRACON (SMA)
09:38AM 42.3544 -83.2722 202° Southwest 163 188 3,100 -480 Descending FAA TRACON SMA TRACON (SMA)
09:39AM 42.3394 -83.2825 207° Southwest 152 175 3,100 -420 Level FAA TRACON SMA TRACON (SMA)
09:39AM 42.3169 -83.2994 209° Southwest 138 159 2,700 -660 Descending FAA TRACON SMA TRACON (SMA)
09:40AM 42.3069 -83.3067 208° Southwest 134 154 2,500 -600 Descending FAA TRACON SMA TRACON (SMA)
09:40AM 42.2969 -83.3142 209° Southwest 114 131 2,300 -600 Descending FAA TRACON SMA TRACON (SMA)
09:40AM 42.2900 -83.3192 208° Southwest 95 109 2,100 -480 Descending FAA TRACON SMA TRACON (SMA)
09:41AM 42.2822 -83.3253 210° Southwest 88 101 2,000 -480 Descending FAA TRACON SMA TRACON (SMA)
09:41AM 42.2756 -83.3300 208° Southwest 89 102 1,800 -480 Descending FAA TRACON SMA TRACON (SMA)
09:41AM 42.2675 -83.3361 209° Southwest 94 108 1,700 -480 Descending FAA TRACON SMA TRACON (SMA)
09:42AM 42.2589 -83.3422 208° Southwest 97 112 1,500 -600 Descending FAA TRACON SMA TRACON (SMA)
09:42AM 42.2517 -83.3478 210° Southwest 100 115 1,300 -600 Descending FAA TRACON SMA TRACON (SMA)